Time;durP1;ratioP1;P1;durP2;ratioP2;P2;SDS_P1;SDS_P2;PMS_P1;PMS_P2;Temp;Humidity;BMP_temperature;BMP_pressure;BME280_temperature;BME280_humidity;BME280_pressure;Samples;Min_cycle;Max_cycle;Signal;HPM_P1;HPM_P2
2024/04/13 00:01:43;;;;;;;7.57;5.00;;;12.50;58.70;;;8.08;100.00;96727.81;5256449;27;20009;-55
2024/04/13 00:04:10;;;;;;;8.25;5.53;;;12.40;58.70;;;8.07;100.00;96726.19;5250081;27;20080;-55
2024/04/13 00:06:37;;;;;;;6.45;4.95;;;12.40;58.90;;;8.05;100.00;96724.78;5251543;27;20010;-55
2024/04/13 00:09:04;;;;;;;10.25;5.28;;;12.40;58.90;;;8.00;100.00;96728.09;5258389;27;20006;-55
2024/04/13 00:11:31;;;;;;;9.75;5.25;;;12.40;59.10;;;7.97;100.00;96720.56;5214360;27;20009;-50
2024/04/13 00:13:57;;;;;;;8.55;5.45;;;12.40;59.10;;;7.92;100.00;96723.06;5260391;27;20602;-50
2024/04/13 00:16:23;;;;;;;10.13;5.40;;;12.30;59.20;;;7.91;100.00;96721.47;5252433;27;20018;-51
2024/04/13 00:18:48;;;;;;;8.15;5.00;;;12.30;59.30;;;7.86;100.00;96710.69;5260466;27;20072;-51
2024/04/13 00:21:14;;;;;;;8.75;4.72;;;12.30;59.40;;;7.84;100.00;96720.72;5249362;27;20020;-51
2024/04/13 00:23:42;;;;;;;8.45;5.38;;;12.20;59.40;;;7.81;100.00;96714.00;5248686;27;20016;-57
2024/04/13 00:26:09;;;;;;;10.40;5.18;;;12.20;59.60;;;7.78;100.00;96706.47;5249641;27;20007;-58
2024/04/13 00:28:34;;;;;;;13.00;5.90;;;12.20;59.60;;;7.74;100.00;96710.63;5247292;27;20063;-56
2024/04/13 00:31:02;;;;;;;8.60;5.10;;;12.10;59.60;;;7.67;100.00;96703.72;5252865;27;20707;-55
2024/04/13 00:33:28;;;;;;;10.75;5.57;;;12.10;59.70;;;7.62;100.00;96699.09;5255326;27;20006;-57
2024/04/13 00:35:59;;;;;;;7.25;5.35;;;12.10;59.70;;;7.58;100.00;96698.72;5249882;27;20005;-54
2024/04/13 00:38:26;;;;;;;9.93;5.60;;;12.10;59.90;;;7.60;100.00;96691.34;5256409;27;20014;-53
2024/04/13 00:40:53;;;;;;;7.97;5.35;;;12.00;59.90;;;7.60;100.00;96694.00;5245082;27;20469;-52
2024/04/13 00:43:19;;;;;;;8.25;5.80;;;12.00;60.00;;;7.59;100.00;96694.22;5250226;27;20417;-56
2024/04/13 00:45:48;;;;;;;8.73;5.55;;;12.00;60.10;;;7.52;100.00;96694.28;5247095;27;20069;-57
2024/04/13 00:48:30;;;;;;;7.35;5.65;;;11.90;60.10;;;7.48;100.00;96690.44;5253835;27;20077;-54
2024/04/13 00:51:04;;;;;;;9.75;6.05;;;11.90;60.50;;;7.51;100.00;96681.25;5255940;27;20014;-52
2024/04/13 00:53:33;;;;;;;13.30;6.43;;;11.90;60.50;;;7.52;100.00;96675.72;5217631;27;20002;-54
2024/04/13 00:56:06;;;;;;;9.52;6.18;;;11.90;60.50;;;7.50;100.00;96675.13;5221670;27;20007;-57
2024/04/13 00:58:36;;;;;;;6.85;5.45;;;11.90;61.50;;;7.53;100.00;96672.03;5244119;27;20003;-55
2024/04/13 01:01:05;;;;;;;8.90;5.97;;;11.90;60.70;;;7.54;100.00;96667.53;5254168;27;20012;-56
2024/04/13 01:03:35;;;;;;;12.80;6.18;;;11.90;60.80;;;7.49;100.00;96673.53;5248838;27;20006;-53
2024/04/13 01:06:01;;;;;;;9.52;5.97;;;11.90;60.80;;;7.50;100.00;96669.81;5246181;27;20458;-52
2024/04/13 01:08:28;;;;;;;13.57;6.80;;;11.90;61.10;;;7.57;100.00;96675.88;5217913;27;20017;-50
2024/04/13 01:11:00;;;;;;;11.63;6.10;;;11.90;61.20;;;7.60;100.00;96669.31;5243037;27;20034;-50
2024/04/13 01:13:27;;;;;;;9.05;5.93;;;11.90;61.30;;;7.59;100.00;96670.38;5231127;27;20021;-50
2024/04/13 01:15:53;;;;;;;8.88;6.10;;;11.90;61.20;;;7.57;100.00;96675.88;5251355;27;20006;-50
2024/04/13 01:18:19;;;;;;;9.27;6.45;;;11.90;61.30;;;7.56;100.00;96676.09;5248159;27;20006;-50
2024/04/13 01:20:46;;;;;;;7.82;5.65;;;11.90;61.40;;;7.56;100.00;96676.91;5240759;27;20025;-51
2024/04/13 01:23:15;;;;;;;13.80;5.93;;;11.90;61.50;;;7.51;100.00;96673.28;5250200;27;20604;-50
2024/04/13 01:25:42;;;;;;;10.70;5.85;;;11.90;61.60;;;7.53;100.00;96673.88;5251835;27;20006;-51
2024/04/13 01:28:10;;;;;;;9.60;5.65;;;11.90;61.60;;;7.60;100.00;96671.97;5247588;27;20017;-50
2024/04/13 01:30:37;;;;;;;9.10;5.47;;;11.90;61.60;;;7.60;100.00;96669.31;5256196;27;20010;-55
2024/04/13 01:33:03;;;;;;;7.22;5.63;;;11.90;61.60;;;7.56;100.00;96673.44;5252652;27;20010;-56
2024/04/13 01:35:30;;;;;;;7.63;5.15;;;11.90;61.70;;;7.52;100.00;96674.91;5257829;27;20033;-57
2024/04/13 01:37:56;;;;;;;8.25;5.35;;;11.90;61.60;;;7.51;100.00;96673.28;5250312;27;20012;-57
2024/04/13 01:40:22;;;;;;;10.52;5.80;;;11.90;61.80;;;7.53;100.00;96669.41;5250666;27;20002;-58
2024/04/13 01:42:48;;;;;;;8.73;4.93;;;11.90;61.80;;;7.45;100.00;96674.97;5225215;27;20072;-53
2024/04/13 01:45:14;;;;;;;9.68;5.38;;;11.80;61.70;;;7.43;100.00;96677.03;5216392;27;20339;-57
2024/04/13 01:47:40;;;;;;;10.93;5.65;;;11.80;61.80;;;7.46;100.00;96673.97;5254784;27;20092;-55
2024/04/13 01:50:07;;;;;;;7.00;5.38;;;11.80;61.90;;;7.47;100.00;96667.63;5265606;27;20046;-55
2024/04/13 01:52:34;;;;;;;7.65;5.13;;;11.80;61.90;;;7.46;100.00;96666.00;5249014;27;20015;-56
2024/04/13 01:55:00;;;;;;;9.75;5.45;;;11.80;61.90;;;7.38;100.00;96668.91;5259744;27;20021;-52
2024/04/13 01:57:26;;;;;;;11.13;5.93;;;11.80;61.90;;;7.30;100.00;96666.53;5257070;27;20026;-50
2024/04/13 01:59:52;;;;;;;8.15;6.10;;;11.80;62.00;;;7.30;100.00;96667.38;5253608;27;20009;-50
2024/04/13 02:02:19;;;;;;;10.02;5.22;;;11.80;62.00;;;7.26;100.00;96663.50;5228946;27;20480;-52
2024/04/13 02:04:45;;;;;;;12.70;5.43;;;11.70;62.00;;;7.23;100.00;96660.47;5253341;27;20050;-50
2024/04/13 02:07:11;;;;;;;10.95;6.38;;;11.70;62.10;;;7.22;100.00;96666.81;5250970;27;20037;-50
2024/04/13 02:09:37;;;;;;;7.90;5.57;;;11.70;62.10;;;7.22;100.00;96670.28;5261767;27;20006;-53
2024/04/13 02:12:04;;;;;;;10.35;4.88;;;11.70;62.20;;;7.20;100.00;96667.03;5244721;27;20021;-52
2024/04/13 02:14:30;;;;;;;14.40;5.15;;;11.70;62.40;;;7.16;100.00;96677.25;5254562;27;20337;-57
2024/04/13 02:16:56;;;;;;;8.63;5.30;;;11.60;62.30;;;7.14;100.00;96683.78;5251040;27;20042;-54
2024/04/13 02:19:22;;;;;;;7.50;5.88;;;11.60;62.30;;;7.11;100.00;96682.41;5254569;27;20018;-57
2024/04/13 02:21:48;;;;;;;9.52;5.78;;;11.60;62.30;;;7.05;100.00;96683.25;5253271;27;20037;-54
2024/04/13 02:24:14;;;;;;;10.10;5.53;;;11.50;62.30;;;7.03;100.00;96679.19;5253947;27;20016;-55
2024/04/13 02:26:40;;;;;;;8.05;5.60;;;11.50;62.40;;;7.00;100.00;96679.63;5250050;27;20401;-55
2024/04/13 02:29:06;;;;;;;10.70;5.47;;;11.40;62.40;;;6.98;100.00;96679.81;5255578;27;20487;-55
2024/04/13 02:31:33;;;;;;;14.07;5.78;;;11.50;62.60;;;7.01;100.00;96684.69;5249884;27;19998;-57
2024/04/13 02:33:59;;;;;;;8.52;5.18;;;11.40;62.60;;;6.94;100.00;96678.63;5252949;27;20357;-54
2024/04/13 02:36:25;;;;;;;8.38;5.80;;;11.40;62.60;;;6.87;100.00;96680.53;5258505;27;20017;-54
2024/04/13 02:38:51;;;;;;;12.45;5.97;;;11.40;62.60;;;6.83;100.00;96681.97;5240032;27;20477;-49
2024/04/13 02:41:19;;;;;;;8.27;5.28;;;11.30;62.60;;;6.82;100.00;96681.16;5251415;27;20003;-52
2024/04/13 02:43:45;;;;;;;8.70;5.72;;;11.30;62.70;;;6.80;100.00;96685.88;5250689;27;20002;-51
2024/04/13 02:46:11;;;;;;;9.07;6.00;;;11.30;62.80;;;6.75;100.00;96685.69;5222089;27;20469;-52
2024/04/13 02:48:40;;;;;;;10.05;5.97;;;11.20;62.80;;;6.74;100.00;96673.47;5247579;27;20041;-49
2024/04/13 02:51:08;;;;;;;12.32;5.60;;;11.20;63.00;;;6.73;100.00;96672.66;5254079;27;20084;-51
2024/04/13 02:53:36;;;;;;;10.13;5.40;;;11.20;63.00;;;6.71;100.00;96673.91;5241277;27;20011;-52
2024/04/13 02:56:07;;;;;;;10.57;5.85;;;11.10;63.10;;;6.67;100.00;96676.16;5258587;27;20551;-48
2024/04/13 02:58:33;;;;;;;9.52;6.00;;;11.10;63.20;;;6.68;100.00;96680.44;5238611;27;20544;-54
2024/04/13 03:01:02;;;;;;;8.88;5.65;;;11.10;63.10;;;6.65;100.00;96682.72;5253463;27;20014;-50
2024/04/13 03:03:29;;;;;;;12.70;5.95;;;11.10;63.30;;;6.64;100.00;96689.84;5255527;27;20013;-50
2024/04/13 03:06:04;;;;;;;9.30;5.63;;;11.10;63.30;;;6.67;100.00;96688.56;5238844;27;20047;-54
2024/04/13 03:08:31;;;;;;;8.82;5.70;;;11.10;63.70;;;6.65;100.00;96682.72;5255642;27;20006;-54
2024/04/13 03:11:00;;;;;;;9.80;5.70;;;11.10;63.60;;;6.66;100.00;96681.66;5247582;27;20026;-57
2024/04/13 03:13:27;;;;;;;10.43;5.97;;;11.10;63.70;;;6.66;100.00;96673.72;5251292;27;20465;-53
2024/04/13 03:16:09;;;;;;;8.80;5.50;;;11.10;63.70;;;6.67;100.00;96672.69;5255181;27;20450;-55
2024/04/13 03:18:38;;;;;;;10.27;5.67;;;11.10;63.90;;;6.63;100.00;96674.97;5259699;27;20399;-52
2024/04/13 03:21:06;;;;;;;9.15;6.25;;;11.10;63.60;;;6.58;100.00;96673.97;5246187;27;20343;-55
2024/04/13 03:23:34;;;;;;;8.50;6.00;;;11.00;63.60;;;6.55;100.00;96677.88;5250150;27;20044;-54
2024/04/13 03:26:00;;;;;;;11.63;6.50;;;11.00;63.70;;;6.52;100.00;96673.00;5269231;27;20010;-52
2024/04/13 03:28:35;;;;;;;10.75;6.75;;;11.00;63.80;;;6.50;100.00;96677.69;5250223;27;20002;-51
2024/04/13 03:31:03;;;;;;;13.70;6.75;;;11.00;64.00;;;6.52;100.00;96678.28;5260264;27;20010;-52
2024/04/13 03:33:29;;;;;;;14.20;7.32;;;10.90;64.00;;;6.54;100.00;96681.53;5214511;27;20391;-53
2024/04/13 03:36:01;;;;;;;12.93;7.15;;;11.00;64.20;;;6.58;100.00;96680.09;5240130;27;20024;-51
2024/04/13 03:38:26;;;;;;;9.20;6.10;;;11.00;64.60;;;6.55;100.00;96684.97;5236773;27;20229;-55
2024/04/13 03:41:06;;;;;;;8.32;5.63;;;11.00;64.50;;;6.57;100.00;96688.25;5238016;27;19999;-51
2024/04/13 03:43:37;;;;;;;10.68;5.95;;;11.00;64.80;;;6.56;100.00;96683.97;5236965;27;20460;-56
2024/04/13 03:46:04;;;;;;;14.10;6.28;;;11.00;64.60;;;6.53;100.00;96685.19;5232028;27;20474;-54
2024/04/13 03:48:31;;;;;;;10.95;6.30;;;11.00;64.50;;;6.56;100.00;96692.72;5244200;27;19999;-53
2024/04/13 03:50:56;;;;;;;10.68;6.80;;;11.00;64.60;;;6.60;100.00;96691.28;5236648;27;20021;-51
2024/04/13 03:53:22;;;;;;;15.00;6.50;;;11.00;64.60;;;6.63;100.00;96698.78;5236998;27;20018;-53
2024/04/13 03:55:48;;;;;;;13.85;6.10;;;11.00;64.60;;;6.65;100.00;96696.75;5236701;27;20018;-55
2024/04/13 03:58:14;;;;;;;14.13;7.00;;;11.00;64.70;;;6.67;100.00;96693.88;5236847;27;20366;-56
2024/04/13 04:00:41;;;;;;;11.55;6.45;;;11.00;64.70;;;6.68;100.00;96693.69;5236688;27;20366;-57
2024/04/13 04:03:07;;;;;;;9.90;6.05;;;11.00;64.80;;;6.67;100.00;96702.63;5236754;27;20006;-53
2024/04/13 04:05:33;;;;;;;11.25;6.55;;;11.10;64.90;;;6.66;100.00;96700.19;5236701;27;20009;-57
2024/04/13 04:07:59;;;;;;;9.18;6.32;;;11.10;64.90;;;6.65;100.00;96694.09;5236974;27;20003;-57
2024/04/13 04:10:25;;;;;;;8.02;6.22;;;11.10;64.90;;;6.64;100.00;96689.00;5237046;27;20022;-53
2024/04/13 04:12:51;;;;;;;11.70;6.07;;;11.10;64.90;;;6.62;100.00;96683.94;5236581;27;20025;-54
2024/04/13 04:15:17;;;;;;;13.80;6.55;;;11.10;64.90;;;6.62;100.00;96691.88;5236426;27;20470;-57
2024/04/13 04:17:43;;;;;;;8.77;5.50;;;11.10;65.00;;;6.59;100.00;96689.66;5235449;27;20575;-51
2024/04/13 04:20:09;;;;;;;11.18;5.80;;;11.10;65.00;;;6.55;100.00;96704.34;5236321;27;20006;-56
2024/04/13 04:22:35;;;;;;;11.60;5.43;;;11.10;64.90;;;6.58;100.00;96701.28;5240235;27;20022;-57
2024/04/13 04:25:01;;;;;;;9.48;5.57;;;11.10;64.90;;;6.60;100.00;96706.34;5242587;27;19998;-57
2024/04/13 04:27:27;;;;;;;8.50;4.93;;;11.10;64.90;;;6.58;100.00;96695.97;5235669;27;20018;-53
2024/04/13 04:29:53;;;;;;;8.00;5.45;;;11.00;64.90;;;6.58;100.00;96703.94;5235671;27;20054;-54
2024/04/13 04:32:19;;;;;;;12.48;5.65;;;11.10;65.00;;;6.59;100.00;96707.38;5235810;27;20011;-57
2024/04/13 04:34:45;;;;;;;10.55;5.60;;;11.10;65.10;;;6.59;100.00;96696.78;5236329;27;20002;-56
2024/04/13 04:37:10;;;;;;;11.10;5.47;;;11.10;65.20;;;6.58;100.00;96695.97;5235813;27;20021;-55
2024/04/13 04:39:36;;;;;;;9.43;5.20;;;11.00;65.20;;;6.59;100.00;96702.09;5236016;27;20014;-57
2024/04/13 04:42:02;;;;;;;14.15;5.82;;;11.10;65.30;;;6.58;100.00;96708.38;5235037;27;20024;-50
2024/04/13 04:44:29;;;;;;;7.18;4.93;;;11.10;65.30;;;6.56;100.00;96710.44;5239966;27;20057;-51
2024/04/13 04:46:55;;;;;;;7.15;5.22;;;11.10;65.30;;;6.55;100.00;96698.22;5235351;27;20018;-50
2024/04/13 04:49:21;;;;;;;12.35;5.82;;;11.10;65.20;;;6.54;100.00;96699.25;5235521;27;20357;-50
2024/04/13 04:51:47;;;;;;;7.43;5.05;;;11.10;65.20;;;6.54;100.00;96692.13;5235522;27;20383;-53
2024/04/13 04:54:13;;;;;;;14.70;6.88;;;11.10;65.20;;;6.56;100.00;96707.81;5235820;27;20017;-52
2024/04/13 04:56:39;;;;;;;10.15;5.93;;;11.10;65.20;;;6.58;100.00;96705.72;5235694;27;20371;-55
2024/04/13 04:59:05;;;;;;;8.50;5.40;;;11.10;65.20;;;6.60;100.00;96709.00;5235165;27;20002;-53
2024/04/13 05:01:30;;;;;;;9.05;5.55;;;11.10;65.30;;;6.62;100.00;96701.66;5235365;27;20002;-57
2024/04/13 05:03:56;;;;;;;11.45;5.40;;;11.20;65.30;;;6.66;100.00;96705.50;5254550;27;20022;-52
2024/04/13 05:06:22;;;;;;;11.23;5.20;;;11.20;65.30;;;6.76;100.00;96707.69;5234718;27;20077;-52
2024/04/13 05:08:48;;;;;;;9.48;5.38;;;11.30;65.50;;;6.80;100.00;96703.56;5235720;27;20030;-56
2024/04/13 05:11:14;;;;;;;7.43;4.43;;;11.30;65.50;;;6.88;100.00;96705.97;5219853;27;20006;-56
2024/04/13 05:13:40;;;;;;;6.47;4.57;;;11.40;65.60;;;6.94;100.00;96707.78;5235309;27;20006;-52
2024/04/13 05:16:08;;;;;;;12.07;5.20;;;11.50;65.60;;;7.03;100.00;96700.38;5235623;27;20038;-56
2024/04/13 05:18:36;;;;;;;12.48;5.80;;;11.50;65.60;;;7.11;100.00;96705.41;5233862;27;20002;-52
2024/04/13 05:21:03;;;;;;;9.82;4.97;;;11.60;65.60;;;7.15;100.00;96702.13;5235535;27;20021;-52
2024/04/13 05:23:29;;;;;;;13.13;5.03;;;11.60;65.60;;;7.20;100.00;96709.41;5234573;27;20008;-51
2024/04/13 05:25:54;;;;;;;7.68;4.80;;;11.70;65.60;;;7.23;100.00;96716.13;5236014;27;20021;-51
2024/04/13 05:28:21;;;;;;;8.20;4.95;;;11.70;65.50;;;7.25;100.00;96722.03;5234934;27;20007;-50
2024/04/13 05:30:56;;;;;;;6.28;4.80;;;11.80;65.50;;;7.31;100.00;96731.78;5233420;27;20006;-50
2024/04/13 05:33:26;;;;;;;10.20;4.50;;;11.90;65.50;;;7.32;100.00;96728.09;5239105;27;20011;-50
2024/04/13 05:35:56;;;;;;;8.30;5.18;;;12.00;65.50;;;7.37;100.00;96744.97;5234453;27;20322;-51
2024/04/13 05:38:23;;;;;;;9.02;4.70;;;12.10;65.30;;;7.55;100.00;96741.59;5232633;27;20011;-52
2024/04/13 05:40:52;;;;;;;9.98;5.45;;;12.30;65.30;;;7.81;100.00;96740.53;5235021;27;20010;-52
2024/04/13 05:43:19;;;;;;;10.82;4.60;;;12.50;65.40;;;8.02;100.00;96749.09;5234683;27;20011;-51
2024/04/13 05:45:45;;;;;;;6.72;3.83;;;12.80;65.40;;;8.23;100.00;96745.22;5235230;27;20006;-54
2024/04/13 05:48:12;;;;;;;10.02;4.47;;;13.10;65.30;;;8.44;100.00;96747.44;5248815;27;20018;-52
2024/04/13 05:50:38;;;;;;;6.47;3.78;;;13.40;65.20;;;8.72;100.00;96752.22;5235103;27;19998;-55
2024/04/13 05:53:04;;;;;;;7.50;3.80;;;13.70;65.00;;;9.09;100.00;96749.47;5247526;27;20401;-58
2024/04/13 05:55:34;;;;;;;15.30;3.70;;;14.10;64.70;;;9.39;100.00;96749.44;5234830;27;20007;-50
2024/04/13 05:57:59;;;;;;;7.50;3.40;;;14.50;64.40;;;9.67;100.00;96751.44;5230609;27;20025;-55
2024/04/13 06:00:25;;;;;;;8.20;3.25;;;14.80;63.80;;;9.92;100.00;96747.75;5236897;27;20003;-57
2024/04/13 06:02:51;;;;;;;5.88;3.00;;;15.20;63.40;;;10.27;100.00;96749.59;5234870;27;20260;-53
2024/04/13 06:05:17;;;;;;;4.40;2.88;;;15.60;62.80;;;10.70;100.00;96745.69;5234903;27;20018;-51
2024/04/13 06:07:43;;;;;;;9.05;3.10;;;16.00;62.30;;;11.17;100.00;96743.66;5232712;27;20015;-51
2024/04/13 06:10:09;;;;;;;5.95;3.08;;;16.40;61.80;;;11.64;100.00;96742.56;5235268;27;20002;-49
2024/04/13 06:12:36;;;;;;;6.15;3.25;;;16.80;61.30;;;12.06;100.00;96742.94;5233260;27;20003;-51
2024/04/13 06:15:02;;;;;;;4.47;3.33;;;17.20;60.50;;;12.46;98.32;96739.22;5234908;27;20006;-50
2024/04/13 06:17:28;;;;;;;8.73;3.35;;;17.70;59.80;;;12.88;93.77;96743.97;5235710;27;20052;-51
2024/04/13 06:19:53;;;;;;;7.18;3.53;;;18.10;59.10;;;13.25;95.40;96746.81;5234560;27;20011;-52
2024/04/13 06:22:23;;;;;;;7.28;3.40;;;18.60;58.60;;;13.61;90.89;96749.81;5235598;27;20010;-51
2024/04/13 06:24:50;;;;;;;5.10;3.40;;;19.00;57.90;;;13.96;87.58;96741.25;5234938;27;20347;-52
2024/04/13 06:27:17;;;;;;;8.77;3.13;;;19.50;57.10;;;14.22;84.80;96747.56;5234034;27;20022;-55
2024/04/13 06:29:50;;;;;;;5.32;3.33;;;19.90;56.20;;;14.51;80.74;96747.22;5235332;27;20010;-55
2024/04/13 06:32:18;;;;;;;5.63;3.05;;;20.30;55.30;;;14.69;78.66;96738.69;5234088;27;20022;-55
2024/04/13 06:34:44;;;;;;;8.30;3.22;;;20.60;54.70;;;14.91;76.21;96743.06;5235868;27;20351;-52
2024/04/13 06:37:13;;;;;;;6.47;3.03;;;20.90;53.90;;;15.13;74.71;96740.97;5233820;27;20006;-55
2024/04/13 06:39:40;;;;;;;7.65;3.20;;;21.20;53.10;;;15.40;73.45;96742.66;5233873;27;20014;-54
2024/04/13 06:42:06;;;;;;;6.28;2.97;;;21.50;52.50;;;15.61;71.62;96738.13;5237584;27;20366;-54
2024/04/13 06:44:32;;;;;;;6.38;2.75;;;21.80;51.80;;;15.75;70.17;96736.50;5234206;27;20429;-55
2024/04/13 06:46:58;;;;;;;5.32;3.10;;;22.10;51.00;;;15.95;70.13;96741.06;5234209;27;20011;-52
2024/04/13 06:49:24;;;;;;;6.72;3.08;;;22.40;50.40;;;16.13;67.91;96737.81;5233552;27;20006;-57
2024/04/13 06:51:50;;;;;;;8.20;2.92;;;22.70;49.80;;;16.36;67.04;96739.13;5235731;27;20420;-54
2024/04/13 06:54:16;;;;;;;7.55;2.97;;;22.90;49.10;;;16.45;66.63;96735.84;5238342;27;20022;-52
2024/04/13 06:56:42;;;;;;;7.05;2.97;;;23.00;48.50;;;16.64;66.08;96734.19;5237245;27;20114;-52
2024/04/13 06:59:07;;;;;;;7.07;3.38;;;23.30;48.10;;;16.91;64.35;96731.13;5239368;27;20010;-53
2024/04/13 07:01:34;;;;;;;5.93;3.75;;;23.40;47.40;;;17.21;64.23;96738.25;5237279;27;20006;-55
2024/04/13 07:04:00;;;;;;;9.20;3.08;;;23.60;47.00;;;17.44;61.18;96736.75;5237404;27;20014;-54
2024/04/13 07:06:27;;;;;;;6.03;3.65;;;23.90;46.40;;;17.76;61.25;96732.72;5238522;27;20022;-51
2024/04/13 07:08:53;;;;;;;6.30;3.38;;;24.10;46.00;;;17.97;60.13;96734.19;5232180;27;20006;-51
2024/04/13 07:11:20;;;;;;;5.35;3.40;;;24.30;45.40;;;18.18;58.35;96734.81;5234060;27;20021;-53
2024/04/13 07:13:46;;;;;;;5.90;2.95;;;24.50;44.70;;;18.39;58.46;96731.88;5236903;27;20458;-54
2024/04/13 07:16:13;;;;;;;5.65;3.25;;;24.70;44.30;;;18.68;56.56;96721.03;5238755;27;20010;-57
2024/04/13 07:18:39;;;;;;;5.40;3.08;;;24.90;43.90;;;18.94;55.90;96718.84;5237984;27;20008;-56
2024/04/13 07:21:05;;;;;;;6.47;3.15;;;25.20;43.50;;;19.08;53.97;96719.72;5244890;27;20484;-52
2024/04/13 07:23:31;;;;;;;5.78;2.83;;;25.40;42.90;;;19.33;53.31;96726.66;5235468;27;20006;-56
2024/04/13 07:26:01;;;;;;;6.55;3.10;;;25.60;42.20;;;19.60;52.62;96709.78;5236707;27;20081;-56
2024/04/13 07:28:30;;;;;;;7.85;3.13;;;25.80;42.10;;;19.73;52.02;96712.84;5237684;27;20080;-58
2024/04/13 07:30:56;;;;;;;6.88;3.20;;;26.00;41.20;;;19.80;52.39;96707.84;5236965;27;20011;-56
2024/04/13 07:33:23;;;;;;;5.97;2.92;;;26.20;40.90;;;19.76;51.89;96702.25;5236439;27;20051;-57
2024/04/13 07:35:48;;;;;;;6.28;3.15;;;26.40;40.50;;;19.89;51.02;96706.06;5237216;27;20017;-56
2024/04/13 07:38:15;;;;;;;8.40;3.33;;;26.50;39.90;;;19.97;51.17;96712.72;5236639;27;20007;-58
2024/04/13 07:40:41;;;;;;;8.95;3.05;;;26.60;39.60;;;20.11;51.11;96708.13;5235664;27;20010;-57
2024/04/13 07:43:07;;;;;;;6.47;2.92;;;26.80;39.10;;;20.18;50.48;96708.56;5236629;27;20003;-56
2024/04/13 07:45:34;;;;;;;9.70;3.30;;;26.80;39.40;;;20.44;50.44;96705.38;5236582;27;20021;-57
2024/04/13 07:47:59;;;;;;;4.03;3.30;;;27.00;38.70;;;20.50;49.95;96704.16;5318000;21;20018;-57
2024/04/13 07:50:26;;;;;;;6.72;3.42;;;27.10;38.40;;;20.54;50.06;96703.28;5371516;26;20035;-58
2024/04/13 07:52:52;;;;;;;7.53;3.42;;;27.30;38.20;;;20.68;49.65;96706.00;5357272;26;20113;-57
2024/04/13 07:55:19;;;;;;;4.80;3.22;;;27.40;37.80;;;20.78;50.00;96708.50;5372664;26;20427;-58
2024/04/13 07:57:45;;;;;;;6.45;3.40;;;27.60;37.50;;;20.98;48.91;96703.75;5352118;26;20004;-58
2024/04/13 08:00:13;;;;;;;8.75;4.03;;;27.70;37.30;;;21.25;48.19;96713.72;5323512;26;20005;-57
2024/04/13 08:02:40;;;;;;;6.57;3.65;;;27.90;36.90;;;21.53;47.72;96702.78;5331069;26;20004;-55
2024/04/13 08:05:07;;;;;;;4.82;3.50;;;28.10;36.70;;;21.64;47.22;96704.94;5297421;26;20328;-57
2024/04/13 08:07:34;;;;;;;6.93;3.50;;;28.20;36.40;;;21.89;47.19;96706.22;5327009;26;20024;-54
2024/04/13 08:10:00;;;;;;;4.68;3.38;;;28.30;36.40;;;22.05;46.62;96709.34;5326387;26;20028;-57
2024/04/13 08:12:26;;;;;;;8.25;4.18;;;28.50;36.10;;;22.24;47.24;96708.38;5322499;26;20008;-56
2024/04/13 08:14:52;;;;;;;6.88;3.35;;;28.80;36.00;;;22.16;45.83;96709.94;5329134;26;20044;-58
2024/04/13 08:17:17;;;;;;;4.82;3.95;;;29.00;35.60;;;22.23;45.73;96699.44;5326399;26;20005;-55
2024/04/13 08:19:44;;;;;;;5.95;3.50;;;29.10;35.10;;;22.36;45.44;96698.53;5325933;26;20024;-55
2024/04/13 08:22:09;;;;;;;4.45;3.70;;;29.30;34.90;;;22.85;44.65;96701.25;5302081;26;20059;-56
2024/04/13 08:24:36;;;;;;;7.15;4.07;;;29.50;34.70;;;23.20;44.24;96698.59;5323686;26;20005;-53
2024/04/13 08:27:02;;;;;;;4.45;4.03;;;29.70;34.50;;;23.57;43.04;96694.44;5327962;26;20483;-56
2024/04/13 08:29:27;;;;;;;8.50;3.85;;;29.90;34.20;;;23.64;42.32;96696.69;5324252;26;20027;-53
2024/04/13 08:31:53;;;;;;;8.30;3.60;;;30.20;33.90;;;23.87;42.87;96698.09;5324165;26;20004;-55
2024/04/13 08:34:19;;;;;;;8.95;4.03;;;30.40;33.60;;;24.20;41.00;96692.91;5324984;26;20009;-58
2024/04/13 08:36:45;;;;;;;8.77;3.78;;;30.70;33.20;;;24.51;40.72;96694.56;5322487;26;20019;-53
2024/04/13 08:39:12;;;;;;;11.85;3.65;;;30.90;32.80;;;24.59;40.52;96696.44;5318599;26;20023;-58
2024/04/13 08:42:03;;;;;;;8.20;4.15;;;31.10;32.40;;;24.16;41.33;96691.97;5329471;26;20382;-58
2024/04/13 08:44:34;;;;;;;6.78;3.63;;;31.30;32.00;;;24.30;42.06;96690.94;5335729;26;20024;-56
2024/04/13 08:47:02;;;;;;;7.95;3.30;;;31.50;31.80;;;24.45;41.03;96690.44;5322467;26;20052;-57
2024/04/13 08:49:31;;;;;;;8.00;3.58;;;31.60;31.50;;;24.62;40.09;96695.78;5318680;26;20034;-55
2024/04/13 08:52:01;;;;;;;7.80;3.65;;;31.80;31.20;;;24.96;39.61;96695.94;5326115;26;20012;-56
2024/04/13 08:54:30;;;;;;;6.05;3.60;;;32.00;30.90;;;25.32;38.39;96687.19;5316805;26;20020;-58
2024/04/13 08:56:58;;;;;;;6.22;3.28;;;32.20;30.50;;;25.53;38.36;96681.72;5326624;26;20008;-53
2024/04/13 08:59:28;;;;;;;9.35;3.05;;;32.40;30.80;;;25.71;39.55;96698.75;5329848;26;20008;-56
2024/04/13 09:01:56;;;;;;;5.15;3.30;;;32.60;30.30;;;25.82;37.05;96698.03;5323186;26;20455;-56
2024/04/13 09:04:23;;;;;;;7.65;3.40;;;32.70;29.90;;;25.94;36.87;96696.47;5321573;26;20074;-56
2024/04/13 09:06:50;;;;;;;6.50;3.55;;;32.80;29.80;;;26.05;37.17;96692.97;5321608;26;20008;-56
2024/04/13 09:09:16;;;;;;;9.35;3.42;;;33.00;29.60;;;26.47;35.83;96690.06;5321718;26;20086;-57
2024/04/13 09:11:43;;;;;;;6.35;3.65;;;33.10;29.20;;;26.68;35.55;96687.25;5293291;26;20028;-57
2024/04/13 09:14:11;;;;;;;7.15;3.30;;;33.30;29.00;;;26.83;35.03;96688.50;5322152;26;20021;-57
2024/04/13 09:16:39;;;;;;;4.18;3.08;;;33.30;28.80;;;26.96;34.74;96692.81;5318481;26;20004;-54
2024/04/13 09:19:05;;;;;;;5.03;3.30;;;33.40;28.60;;;26.81;34.98;96684.53;5324033;26;20075;-55
2024/04/13 09:21:34;;;;;;;5.55;3.25;;;33.50;28.60;;;26.67;34.40;96687.59;5331418;26;20021;-54
2024/04/13 09:24:00;;;;;;;7.45;3.15;;;33.60;28.40;;;26.65;34.69;96674.28;5327757;26;20388;-54
2024/04/13 09:26:25;;;;;;;8.02;3.20;;;33.70;28.50;;;26.70;35.01;96679.53;5328397;26;20014;-53
2024/04/13 09:28:51;;;;;;;3.92;2.95;;;33.70;28.00;;;26.99;34.00;96673.00;5327508;26;20081;-54
2024/04/13 09:31:19;;;;;;;7.20;3.70;;;33.80;27.90;;;27.13;33.81;96674.56;5325925;26;20495;-57
2024/04/13 09:33:52;;;;;;;9.70;3.22;;;34.00;27.80;;;27.50;34.05;96669.03;5319022;26;20011;-54
2024/04/13 09:36:26;;;;;;;6.15;3.20;;;34.10;27.60;;;27.91;33.47;96667.81;5302001;26;20402;-54
2024/04/13 09:38:55;;;;;;;7.45;3.30;;;34.30;27.50;;;28.13;33.67;96666.44;5316924;26;20485;-57
2024/04/13 09:41:25;;;;;;;4.78;2.90;;;34.50;27.50;;;28.45;32.34;96666.47;5324060;26;20023;-55
2024/04/13 09:43:52;;;;;;;6.05;3.50;;;34.70;27.20;;;28.62;31.52;96665.31;5341271;26;20040;-54
2024/04/13 09:46:19;;;;;;;8.68;3.38;;;34.90;27.00;;;28.62;31.62;96655.16;5323315;26;20017;-54
2024/04/13 09:48:46;;;;;;;7.32;3.20;;;35.20;26.70;;;28.88;31.93;96651.03;5332045;26;20008;-58
2024/04/13 09:51:12;;;;;;;6.10;3.20;;;35.40;26.70;;;28.87;30.59;96654.94;5317905;26;20367;-58
2024/04/13 09:53:38;;;;;;;5.47;2.72;;;35.60;26.30;;;29.26;30.30;96650.31;5323153;26;20471;-58
2024/04/13 09:56:05;;;;;;;8.73;3.40;;;35.90;26.10;;;29.54;30.41;96646.56;5329800;26;20009;-58
2024/04/13 09:58:32;;;;;;;10.63;3.30;;;36.10;25.90;;;29.78;30.24;96637.25;5322037;26;20484;-53
2024/04/13 10:01:04;;;;;;;7.50;3.60;;;36.20;25.70;;;29.80;28.95;96635.72;5329201;26;20528;-58
2024/04/13 10:03:31;;;;;;;9.02;3.33;;;36.40;25.50;;;29.64;30.29;96638.56;5325255;26;20004;-56
2024/04/13 10:06:00;;;;;;;13.00;4.05;;;36.40;25.40;;;29.85;29.11;96631.91;5306394;26;20540;-58
2024/04/13 10:08:31;;;;;;;11.63;3.58;;;36.60;25.20;;;30.07;29.42;96628.38;5303768;26;20016;-55
2024/04/13 10:10:59;;;;;;;9.27;3.47;;;36.80;25.10;;;29.73;29.36;96622.66;5327514;26;20037;-54
2024/04/13 10:13:42;;;;;;;11.02;3.50;;;36.90;25.00;;;30.10;29.56;96626.84;5323761;26;20016;-56
2024/04/13 10:16:10;;;;;;;5.63;2.92;;;37.10;25.00;;;30.30;28.39;96620.13;5328685;26;20012;-57
2024/04/13 10:18:37;;;;;;;6.85;3.38;;;37.20;24.70;;;30.23;28.93;96621.97;5292925;26;20028;-54